sensor_id;sensor_type;location;lat;lon;timestamp;pressure;altitude;pressure_sealevel;temperature;humidity
54918;BME280;40818;50.562;7.454;2022-10-13T00:00:58;98211.38;;;8.11;100.00
54918;BME280;40818;50.562;7.454;2022-10-13T00:06:05;98212.25;;;7.93;100.00
54918;BME280;40818;50.562;7.454;2022-10-13T00:11:11;98211.50;;;7.91;100.00
54918;BME280;40818;50.562;7.454;2022-10-13T00:16:17;98207.84;;;7.95;100.00
54918;BME280;40818;50.562;7.454;2022-10-13T00:21:25;98212.66;;;7.83;100.00
54918;BME280;40818;50.562;7.454;2022-10-13T00:26:29;98209.34;;;7.81;100.00
54918;BME280;40818;50.562;7.454;2022-10-13T00:31:33;98214.91;;;7.72;100.00
54918;BME280;40818;50.562;7.454;2022-10-13T00:36:40;98200.91;;;7.59;100.00
54918;BME280;40818;50.562;7.454;2022-10-13T00:41:43;98198.59;;;7.72;100.00
54918;BME280;40818;50.562;7.454;2022-10-13T00:46:47;98194.03;;;7.77;100.00
54918;BME280;40818;50.562;7.454;2022-10-13T00:51:53;98195.94;;;7.73;100.00
54918;BME280;40818;50.562;7.454;2022-10-13T00:56:56;98196.63;;;7.77;100.00
54918;BME280;40818;50.562;7.454;2022-10-13T01:02:00;98193.66;;;7.84;100.00
54918;BME280;40818;50.562;7.454;2022-10-13T01:07:07;98183.81;;;7.93;100.00
54918;BME280;40818;50.562;7.454;2022-10-13T01:12:21;98186.03;;;8.00;100.00
54918;BME280;40818;50.562;7.454;2022-10-13T01:17:31;98187.66;;;8.03;100.00
54918;BME280;40818;50.562;7.454;2022-10-13T01:22:46;98185.06;;;8.03;100.00
54918;BME280;40818;50.562;7.454;2022-10-13T01:28:09;98169.00;;;7.96;100.00
54918;BME280;40818;50.562;7.454;2022-10-13T01:33:27;98163.56;;;7.83;100.00
54918;BME280;40818;50.562;7.454;2022-10-13T01:38:35;98157.78;;;7.78;100.00
54918;BME280;40818;50.562;7.454;2022-10-13T01:43:44;98156.09;;;7.77;100.00
54918;BME280;40818;50.562;7.454;2022-10-13T01:48:52;98146.81;;;7.73;100.00
54918;BME280;40818;50.562;7.454;2022-10-13T01:53:57;98141.72;;;7.72;100.00
54918;BME280;40818;50.562;7.454;2022-10-13T01:59:04;98139.06;;;7.73;100.00
54918;BME280;40818;50.562;7.454;2022-10-13T02:04:20;98130.41;;;7.74;100.00
54918;BME280;40818;50.562;7.454;2022-10-13T02:09:27;98137.38;;;7.72;100.00
54918;BME280;40818;50.562;7.454;2022-10-13T02:14:35;98123.72;;;7.70;100.00
54918;BME280;40818;50.562;7.454;2022-10-13T02:19:43;98125.25;;;7.74;100.00
54918;BME280;40818;50.562;7.454;2022-10-13T02:24:47;98121.88;;;7.72;100.00
54918;BME280;40818;50.562;7.454;2022-10-13T02:29:54;98118.69;;;7.67;100.00
54918;BME280;40818;50.562;7.454;2022-10-13T02:35:06;98117.50;;;7.55;100.00
54918;BME280;40818;50.562;7.454;2022-10-13T02:40:10;98115.16;;;7.50;100.00
54918;BME280;40818;50.562;7.454;2022-10-13T02:45:14;98116.69;;;7.55;100.00
54918;BME280;40818;50.562;7.454;2022-10-13T02:50:20;98114.78;;;7.58;100.00
54918;BME280;40818;50.562;7.454;2022-10-13T02:55:24;98111.28;;;7.59;100.00
54918;BME280;40818;50.562;7.454;2022-10-13T03:00:30;98119.59;;;7.66;100.00
54918;BME280;40818;50.562;7.454;2022-10-13T03:05:36;98120.75;;;7.78;100.00
54918;BME280;40818;50.562;7.454;2022-10-13T03:10:39;98126.53;;;7.83;100.00
54918;BME280;40818;50.562;7.454;2022-10-13T03:15:42;98117.81;;;7.85;100.00
54918;BME280;40818;50.562;7.454;2022-10-13T03:20:57;98119.63;;;7.83;100.00
54918;BME280;40818;50.562;7.454;2022-10-13T03:26:01;98119.91;;;7.77;100.00
54918;BME280;40818;50.562;7.454;2022-10-13T03:31:06;98121.69;;;7.77;100.00
54918;BME280;40818;50.562;7.454;2022-10-13T03:36:12;98124.78;;;7.83;100.00
54918;BME280;40818;50.562;7.454;2022-10-13T03:41:17;98126.31;;;7.88;100.00
54918;BME280;40818;50.562;7.454;2022-10-13T03:46:26;98128.44;;;7.79;100.00
54918;BME280;40818;50.562;7.454;2022-10-13T03:51:34;98123.41;;;7.76;100.00
54918;BME280;40818;50.562;7.454;2022-10-13T03:56:38;98126.78;;;7.78;100.00
54918;BME280;40818;50.562;7.454;2022-10-13T04:01:42;98110.34;;;7.79;100.00
54918;BME280;40818;50.562;7.454;2022-10-13T04:06:48;98099.25;;;7.77;100.00
54918;BME280;40818;50.562;7.454;2022-10-13T04:11:52;98088.44;;;7.69;100.00
54918;BME280;40818;50.562;7.454;2022-10-13T04:16:55;98084.41;;;7.63;100.00
54918;BME280;40818;50.562;7.454;2022-10-13T04:22:01;98078.47;;;7.61;100.00
54918;BME280;40818;50.562;7.454;2022-10-13T04:27:04;98070.94;;;7.57;100.00
54918;BME280;40818;50.562;7.454;2022-10-13T04:32:08;98076.59;;;7.46;100.00
54918;BME280;40818;50.562;7.454;2022-10-13T04:37:14;98071.59;;;7.43;100.00
54918;BME280;40818;50.562;7.454;2022-10-13T04:42:18;98073.03;;;7.48;100.00
54918;BME280;40818;50.562;7.454;2022-10-13T04:47:21;98063.25;;;7.38;100.00
54918;BME280;40818;50.562;7.454;2022-10-13T04:52:27;98065.53;;;7.25;100.00
54918;BME280;40818;50.562;7.454;2022-10-13T04:57:31;98055.06;;;7.28;100.00
54918;BME280;40818;50.562;7.454;2022-10-13T05:02:35;98049.91;;;7.28;100.00
54918;BME280;40818;50.562;7.454;2022-10-13T05:07:41;98046.34;;;7.30;100.00
54918;BME280;40818;50.562;7.454;2022-10-13T05:12:44;98050.19;;;7.22;100.00
54918;BME280;40818;50.562;7.454;2022-10-13T05:17:48;98043.91;;;7.08;100.00
54918;BME280;40818;50.562;7.454;2022-10-13T05:22:54;98036.72;;;7.15;100.00
54918;BME280;40818;50.562;7.454;2022-10-13T05:27:57;98043.34;;;7.21;100.00
54918;BME280;40818;50.562;7.454;2022-10-13T05:33:01;98033.09;;;7.19;100.00
54918;BME280;40818;50.562;7.454;2022-10-13T05:38:07;98038.97;;;7.23;100.00
54918;BME280;40818;50.562;7.454;2022-10-13T05:43:11;98035.66;;;7.38;100.00
54918;BME280;40818;50.562;7.454;2022-10-13T05:48:14;98039.63;;;7.45;100.00
54918;BME280;40818;50.562;7.454;2022-10-13T05:53:21;98038.41;;;7.52;100.00
54918;BME280;40818;50.562;7.454;2022-10-13T05:58:25;98036.75;;;7.51;100.00
54918;BME280;40818;50.562;7.454;2022-10-13T06:03:28;98041.22;;;7.48;100.00
54918;BME280;40818;50.562;7.454;2022-10-13T06:08:35;98032.13;;;7.22;100.00
54918;BME280;40818;50.562;7.454;2022-10-13T06:13:39;98020.75;;;7.07;100.00
54918;BME280;40818;50.562;7.454;2022-10-13T06:18:42;98016.84;;;7.17;100.00
54918;BME280;40818;50.562;7.454;2022-10-13T06:23:48;98030.25;;;7.25;100.00
54918;BME280;40818;50.562;7.454;2022-10-13T06:28:54;98028.66;;;7.40;100.00
54918;BME280;40818;50.562;7.454;2022-10-13T06:33:57;98024.75;;;7.50;100.00
54918;BME280;40818;50.562;7.454;2022-10-13T06:39:03;98023.44;;;7.59;100.00
54918;BME280;40818;50.562;7.454;2022-10-13T06:44:07;98025.06;;;7.62;100.00
54918;BME280;40818;50.562;7.454;2022-10-13T06:49:10;98024.44;;;7.57;100.00
54918;BME280;40818;50.562;7.454;2022-10-13T06:54:17;98027.88;;;7.57;100.00
54918;BME280;40818;50.562;7.454;2022-10-13T06:59:20;98019.66;;;7.66;100.00
54918;BME280;40818;50.562;7.454;2022-10-13T07:04:25;98020.81;;;7.78;100.00
54918;BME280;40818;50.562;7.454;2022-10-13T07:09:34;98022.38;;;7.98;100.00
54918;BME280;40818;50.562;7.454;2022-10-13T07:14:38;98029.91;;;8.20;100.00
54918;BME280;40818;50.562;7.454;2022-10-13T07:19:42;98028.03;;;8.40;100.00
54918;BME280;40818;50.562;7.454;2022-10-13T07:24:53;98022.78;;;8.59;100.00
54918;BME280;40818;50.562;7.454;2022-10-13T07:29:57;98037.22;;;8.79;100.00
54918;BME280;40818;50.562;7.454;2022-10-13T07:35:01;98026.91;;;8.95;100.00
54918;BME280;40818;50.562;7.454;2022-10-13T07:40:08;98038.75;;;9.15;100.00
54918;BME280;40818;50.562;7.454;2022-10-13T07:45:12;98051.81;;;9.30;100.00
54918;BME280;40818;50.562;7.454;2022-10-13T07:50:15;98042.59;;;9.40;100.00
54918;BME280;40818;50.562;7.454;2022-10-13T07:55:21;98036.06;;;9.49;100.00
54918;BME280;40818;50.562;7.454;2022-10-13T08:00:28;98032.88;;;9.60;100.00
54918;BME280;40818;50.562;7.454;2022-10-13T08:05:32;98037.16;;;9.75;100.00
54918;BME280;40818;50.562;7.454;2022-10-13T08:10:39;98036.66;;;9.84;100.00
54918;BME280;40818;50.562;7.454;2022-10-13T08:15:43;98031.38;;;9.86;100.00
54918;BME280;40818;50.562;7.454;2022-10-13T08:20:47;98028.06;;;9.98;100.00
54918;BME280;40818;50.562;7.454;2022-10-13T08:25:54;98030.41;;;10.03;100.00
54918;BME280;40818;50.562;7.454;2022-10-13T08:30:58;98026.22;;;10.00;100.00
54918;BME280;40818;50.562;7.454;2022-10-13T08:36:01;98034.38;;;9.94;100.00
54918;BME280;40818;50.562;7.454;2022-10-13T08:41:14;98027.66;;;9.76;100.00
54918;BME280;40818;50.562;7.454;2022-10-13T08:46:24;98012.63;;;9.66;100.00
54918;BME280;40818;50.562;7.454;2022-10-13T08:51:28;98003.78;;;9.54;100.00
54918;BME280;40818;50.562;7.454;2022-10-13T08:56:35;98000.06;;;9.74;100.00
54918;BME280;40818;50.562;7.454;2022-10-13T09:01:39;98014.63;;;10.06;100.00
54918;BME280;40818;50.562;7.454;2022-10-13T09:06:51;98011.94;;;10.38;100.00
54918;BME280;40818;50.562;7.454;2022-10-13T09:11:58;98006.00;;;10.65;100.00
54918;BME280;40818;50.562;7.454;2022-10-13T09:17:16;97995.28;;;10.84;100.00
54918;BME280;40818;50.562;7.454;2022-10-13T09:22:23;97995.56;;;10.93;100.00
54918;BME280;40818;50.562;7.454;2022-10-13T09:27:40;98003.91;;;10.99;100.00
54918;BME280;40818;50.562;7.454;2022-10-13T09:32:45;97994.94;;;11.17;100.00
54918;BME280;40818;50.562;7.454;2022-10-13T09:38:01;97992.03;;;11.49;100.00
54918;BME280;40818;50.562;7.454;2022-10-13T09:43:19;97989.78;;;11.57;100.00
54918;BME280;40818;50.562;7.454;2022-10-13T09:48:28;97990.22;;;11.77;100.00
54918;BME280;40818;50.562;7.454;2022-10-13T09:53:35;97991.94;;;12.04;100.00
54918;BME280;40818;50.562;7.454;2022-10-13T09:58:47;97989.44;;;12.41;100.00
54918;BME280;40818;50.562;7.454;2022-10-13T10:03:54;97991.00;;;12.56;100.00
54918;BME280;40818;50.562;7.454;2022-10-13T10:09:04;97985.47;;;12.61;100.00
54918;BME280;40818;50.562;7.454;2022-10-13T10:14:20;97980.03;;;12.77;100.00
54918;BME280;40818;50.562;7.454;2022-10-13T10:19:31;97986.69;;;12.81;100.00
54918;BME280;40818;50.562;7.454;2022-10-13T10:24:45;97992.06;;;12.91;100.00
54918;BME280;40818;50.562;7.454;2022-10-13T10:29:56;97988.00;;;12.87;100.00
54918;BME280;40818;50.562;7.454;2022-10-13T10:35:11;97980.84;;;12.77;100.00
54918;BME280;40818;50.562;7.454;2022-10-13T10:40:23;97976.47;;;12.78;100.00
54918;BME280;40818;50.562;7.454;2022-10-13T10:45:33;97970.75;;;12.73;100.00
54918;BME280;40818;50.562;7.454;2022-10-13T10:50:37;97971.56;;;12.86;100.00
54918;BME280;40818;50.562;7.454;2022-10-13T10:55:49;97958.91;;;12.93;100.00
54918;BME280;40818;50.562;7.454;2022-10-13T11:01:04;97949.72;;;13.24;100.00
54918;BME280;40818;50.562;7.454;2022-10-13T11:06:30;97938.88;;;13.77;100.00
54918;BME280;40818;50.562;7.454;2022-10-13T11:11:37;97929.56;;;14.20;100.00
54918;BME280;40818;50.562;7.454;2022-10-13T11:17:14;97922.91;;;14.73;100.00
54918;BME280;40818;50.562;7.454;2022-10-13T11:22:20;97919.03;;;14.99;100.00
54918;BME280;40818;50.562;7.454;2022-10-13T11:27:27;97911.56;;;15.27;100.00
54918;BME280;40818;50.562;7.454;2022-10-13T11:32:44;97916.13;;;15.67;100.00
54918;BME280;40818;50.562;7.454;2022-10-13T11:38:18;97897.59;;;16.01;100.00
54918;BME280;40818;50.562;7.454;2022-10-13T11:43:38;97898.03;;;16.37;100.00
54918;BME280;40818;50.562;7.454;2022-10-13T11:49:07;97892.44;;;16.21;100.00
54918;BME280;40818;50.562;7.454;2022-10-13T11:54:22;97895.44;;;16.57;98.88
54918;BME280;40818;50.562;7.454;2022-10-13T11:59:31;97889.84;;;16.81;96.67
54918;BME280;40818;50.562;7.454;2022-10-13T12:04:40;97881.19;;;17.00;96.60
54918;BME280;40818;50.562;7.454;2022-10-13T12:09:48;97875.81;;;17.12;94.84
54918;BME280;40818;50.562;7.454;2022-10-13T12:14:55;97878.16;;;17.34;90.42
54918;BME280;40818;50.562;7.454;2022-10-13T12:20:19;97877.44;;;17.42;90.07
54918;BME280;40818;50.562;7.454;2022-10-13T12:25:25;97879.09;;;17.53;88.13
54918;BME280;40818;50.562;7.454;2022-10-13T12:30:34;97875.63;;;17.62;90.45
54918;BME280;40818;50.562;7.454;2022-10-13T12:35:40;97865.81;;;17.64;89.64
54918;BME280;40818;50.562;7.454;2022-10-13T12:40:43;97866.13;;;17.42;91.29
54918;BME280;40818;50.562;7.454;2022-10-13T12:45:47;97868.06;;;16.91;90.91
54918;BME280;40818;50.562;7.454;2022-10-13T12:50:53;97863.06;;;16.78;91.30
54918;BME280;40818;50.562;7.454;2022-10-13T12:55:58;97852.44;;;16.60;91.16
54918;BME280;40818;50.562;7.454;2022-10-13T13:01:07;97859.28;;;16.31;93.34
54918;BME280;40818;50.562;7.454;2022-10-13T13:06:27;97853.19;;;15.90;95.60
54918;BME280;40818;50.562;7.454;2022-10-13T13:11:34;97854.75;;;16.02;96.12
54918;BME280;40818;50.562;7.454;2022-10-13T13:16:38;97853.13;;;16.11;95.82
54918;BME280;40818;50.562;7.454;2022-10-13T13:21:44;97848.00;;;15.79;97.96
54918;BME280;40818;50.562;7.454;2022-10-13T13:26:47;97847.00;;;15.49;98.56
54918;BME280;40818;50.562;7.454;2022-10-13T13:31:51;97844.53;;;15.26;99.15
54918;BME280;40818;50.562;7.454;2022-10-13T13:37:00;97856.91;;;15.24;100.00
54918;BME280;40818;50.562;7.454;2022-10-13T13:42:04;97850.72;;;15.46;100.00
54918;BME280;40818;50.562;7.454;2022-10-13T13:47:18;97861.56;;;15.42;100.00
54918;BME280;40818;50.562;7.454;2022-10-13T13:52:24;97848.28;;;15.33;100.00
54918;BME280;40818;50.562;7.454;2022-10-13T13:57:28;97842.16;;;15.23;99.74
54918;BME280;40818;50.562;7.454;2022-10-13T14:02:31;97838.00;;;14.99;100.00
54918;BME280;40818;50.562;7.454;2022-10-13T14:07:38;97829.06;;;14.81;100.00
54918;BME280;40818;50.562;7.454;2022-10-13T14:12:42;97832.88;;;14.77;100.00
54918;BME280;40818;50.562;7.454;2022-10-13T14:17:45;97837.78;;;14.59;100.00
54918;BME280;40818;50.562;7.454;2022-10-13T14:22:51;97827.66;;;14.54;100.00
54918;BME280;40818;50.562;7.454;2022-10-13T14:27:55;97822.00;;;14.38;100.00
54918;BME280;40818;50.562;7.454;2022-10-13T14:32:58;97823.31;;;14.32;100.00
54918;BME280;40818;50.562;7.454;2022-10-13T14:38:07;97816.97;;;14.13;100.00
54918;BME280;40818;50.562;7.454;2022-10-13T14:43:14;97811.75;;;14.02;100.00
54918;BME280;40818;50.562;7.454;2022-10-13T14:48:17;97819.84;;;13.88;100.00
54918;BME280;40818;50.562;7.454;2022-10-13T14:53:23;97810.09;;;13.67;100.00
54918;BME280;40818;50.562;7.454;2022-10-13T14:58:28;97802.41;;;13.65;100.00
54918;BME280;40818;50.562;7.454;2022-10-13T15:03:31;97812.59;;;13.57;100.00
54918;BME280;40818;50.562;7.454;2022-10-13T15:08:37;97811.28;;;13.52;100.00
54918;BME280;40818;50.562;7.454;2022-10-13T15:13:41;97803.66;;;13.48;100.00
54918;BME280;40818;50.562;7.454;2022-10-13T15:18:45;97805.94;;;13.42;100.00
54918;BME280;40818;50.562;7.454;2022-10-13T15:23:51;97799.75;;;13.43;100.00
54918;BME280;40818;50.562;7.454;2022-10-13T15:28:54;97807.53;;;13.31;100.00
54918;BME280;40818;50.562;7.454;2022-10-13T15:33:59;97801.38;;;13.21;100.00
54918;BME280;40818;50.562;7.454;2022-10-13T15:39:05;97792.22;;;13.15;100.00
54918;BME280;40818;50.562;7.454;2022-10-13T15:44:09;97795.91;;;13.13;100.00
54918;BME280;40818;50.562;7.454;2022-10-13T15:49:12;97802.28;;;13.09;100.00
54918;BME280;40818;50.562;7.454;2022-10-13T15:54:19;97793.72;;;13.07;100.00
54918;BME280;40818;50.562;7.454;2022-10-13T15:59:23;97795.25;;;12.98;100.00
54918;BME280;40818;50.562;7.454;2022-10-13T16:04:26;97797.16;;;12.96;100.00
54918;BME280;40818;50.562;7.454;2022-10-13T16:09:32;97797.47;;;12.91;100.00
54918;BME280;40818;50.562;7.454;2022-10-13T16:14:36;97783.72;;;12.78;100.00
54918;BME280;40818;50.562;7.454;2022-10-13T16:19:39;97781.22;;;12.52;100.00
54918;BME280;40818;50.562;7.454;2022-10-13T16:24:45;97774.47;;;12.50;100.00
54918;BME280;40818;50.562;7.454;2022-10-13T16:29:49;97781.56;;;12.48;100.00
54918;BME280;40818;50.562;7.454;2022-10-13T16:34:52;97774.75;;;12.34;100.00
54918;BME280;40818;50.562;7.454;2022-10-13T16:39:58;97777.03;;;12.38;100.00
54918;BME280;40818;50.562;7.454;2022-10-13T16:45:02;97781.63;;;12.35;100.00
54918;BME280;40818;50.562;7.454;2022-10-13T16:50:07;97778.34;;;12.20;100.00
54918;BME280;40818;50.562;7.454;2022-10-13T16:55:14;97785.22;;;12.21;100.00
54918;BME280;40818;50.562;7.454;2022-10-13T17:00:18;97779.25;;;11.94;100.00
54918;BME280;40818;50.562;7.454;2022-10-13T17:05:21;97783.38;;;11.84;100.00
54918;BME280;40818;50.562;7.454;2022-10-13T17:10:29;97782.56;;;11.84;100.00
54918;BME280;40818;50.562;7.454;2022-10-13T17:15:34;97781.31;;;11.89;100.00
54918;BME280;40818;50.562;7.454;2022-10-13T17:20:38;97788.28;;;11.89;100.00
54918;BME280;40818;50.562;7.454;2022-10-13T17:25:44;97794.09;;;11.92;100.00
54918;BME280;40818;50.562;7.454;2022-10-13T17:30:55;97800.44;;;11.88;100.00
54918;BME280;40818;50.562;7.454;2022-10-13T17:36:00;97795.56;;;11.97;100.00
54918;BME280;40818;50.562;7.454;2022-10-13T17:41:07;97802.22;;;11.88;100.00
54918;BME280;40818;50.562;7.454;2022-10-13T17:46:22;97802.84;;;11.91;100.00
54918;BME280;40818;50.562;7.454;2022-10-13T17:51:27;97794.25;;;11.65;100.00
54918;BME280;40818;50.562;7.454;2022-10-13T17:56:33;97791.38;;;11.44;100.00
54918;BME280;40818;50.562;7.454;2022-10-13T18:01:37;97787.59;;;11.48;100.00
54918;BME280;40818;50.562;7.454;2022-10-13T18:06:41;97792.78;;;11.48;100.00
54918;BME280;40818;50.562;7.454;2022-10-13T18:11:52;97798.13;;;11.59;100.00
54918;BME280;40818;50.562;7.454;2022-10-13T18:16:56;97793.09;;;11.56;100.00
54918;BME280;40818;50.562;7.454;2022-10-13T18:21:59;97787.06;;;11.56;100.00
54918;BME280;40818;50.562;7.454;2022-10-13T18:27:05;97796.53;;;11.70;100.00
54918;BME280;40818;50.562;7.454;2022-10-13T18:32:09;97792.78;;;11.74;100.00
54918;BME280;40818;50.562;7.454;2022-10-13T18:37:12;97789.03;;;11.78;100.00
54918;BME280;40818;50.562;7.454;2022-10-13T18:42:18;97797.53;;;11.80;100.00
54918;BME280;40818;50.562;7.454;2022-10-13T18:47:22;97797.53;;;11.80;100.00
54918;BME280;40818;50.562;7.454;2022-10-13T18:52:26;97799.22;;;11.81;100.00
54918;BME280;40818;50.562;7.454;2022-10-13T18:57:33;97806.72;;;11.86;100.00
54918;BME280;40818;50.562;7.454;2022-10-13T19:02:37;97806.59;;;11.87;100.00
54918;BME280;40818;50.562;7.454;2022-10-13T19:07:41;97805.06;;;11.85;100.00
54918;BME280;40818;50.562;7.454;2022-10-13T19:12:47;97793.78;;;11.84;100.00
54918;BME280;40818;50.562;7.454;2022-10-13T19:17:53;97806.09;;;11.82;100.00
54918;BME280;40818;50.562;7.454;2022-10-13T19:22:57;97806.19;;;11.81;100.00
54918;BME280;40818;50.562;7.454;2022-10-13T19:28:03;97803.38;;;11.84;100.00
54918;BME280;40818;50.562;7.454;2022-10-13T19:33:08;97806.09;;;11.82;100.00
54918;BME280;40818;50.562;7.454;2022-10-13T19:38:20;97806.09;;;11.82;100.00
54918;BME280;40818;50.562;7.454;2022-10-13T19:43:26;97814.81;;;11.81;100.00
54918;BME280;40818;50.562;7.454;2022-10-13T19:48:30;97826.25;;;11.78;100.00
54918;BME280;40818;50.562;7.454;2022-10-13T19:53:34;97820.69;;;11.72;100.00
54918;BME280;40818;50.562;7.454;2022-10-13T19:58:40;97815.66;;;11.69;100.00
54918;BME280;40818;50.562;7.454;2022-10-13T20:03:44;97817.34;;;11.70;100.00
54918;BME280;40818;50.562;7.454;2022-10-13T20:08:48;97822.00;;;11.65;100.00
54918;BME280;40818;50.562;7.454;2022-10-13T20:13:54;97811.13;;;11.59;100.00
54918;BME280;40818;50.562;7.454;2022-10-13T20:18:59;97814.63;;;11.58;100.00
54918;BME280;40818;50.562;7.454;2022-10-13T20:24:03;97812.56;;;11.64;100.00
54918;BME280;40818;50.562;7.454;2022-10-13T20:29:09;97819.31;;;11.53;100.00
54918;BME280;40818;50.562;7.454;2022-10-13T20:34:13;97821.91;;;11.53;100.00
54918;BME280;40818;50.562;7.454;2022-10-13T20:39:16;97816.50;;;11.56;100.00
54918;BME280;40818;50.562;7.454;2022-10-13T20:44:22;97824.22;;;11.58;100.00
54918;BME280;40818;50.562;7.454;2022-10-13T20:49:26;97825.97;;;11.57;100.00
54918;BME280;40818;50.562;7.454;2022-10-13T20:54:29;97824.22;;;11.58;100.00
54918;BME280;40818;50.562;7.454;2022-10-13T20:59:35;97834.28;;;11.63;100.00
54918;BME280;40818;50.562;7.454;2022-10-13T21:04:38;97826.50;;;11.63;100.00
54918;BME280;40818;50.562;7.454;2022-10-13T21:09:42;97825.84;;;11.59;100.00
54918;BME280;40818;50.562;7.454;2022-10-13T21:14:48;97821.91;;;11.53;100.00
54918;BME280;40818;50.562;7.454;2022-10-13T21:19:51;97826.28;;;11.53;100.00
54918;BME280;40818;50.562;7.454;2022-10-13T21:24:55;97819.63;;;11.49;100.00
54918;BME280;40818;50.562;7.454;2022-10-13T21:30:01;97823.28;;;11.46;100.00
54918;BME280;40818;50.562;7.454;2022-10-13T21:35:05;97822.34;;;11.47;100.00
54918;BME280;40818;50.562;7.454;2022-10-13T21:40:09;97827.75;;;11.44;100.00
54918;BME280;40818;50.562;7.454;2022-10-13T21:45:15;97821.91;;;11.40;100.00
54918;BME280;40818;50.562;7.454;2022-10-13T21:50:18;97819.53;;;11.37;100.00
54918;BME280;40818;50.562;7.454;2022-10-13T21:55:23;97812.13;;;11.31;100.00
54918;BME280;40818;50.562;7.454;2022-10-13T22:00:29;97812.03;;;11.33;100.00
54918;BME280;40818;50.562;7.454;2022-10-13T22:05:33;97814.72;;;11.31;100.00
54918;BME280;40818;50.562;7.454;2022-10-13T22:10:37;97805.38;;;11.28;100.00
54918;BME280;40818;50.562;7.454;2022-10-13T22:15:43;97815.88;;;11.27;100.00
54918;BME280;40818;50.562;7.454;2022-10-13T22:20:49;97822.09;;;11.24;100.00
54918;BME280;40818;50.562;7.454;2022-10-13T22:25:52;97817.53;;;11.28;100.00
54918;BME280;40818;50.562;7.454;2022-10-13T22:31:02;97817.31;;;11.18;100.00
54918;BME280;40818;50.562;7.454;2022-10-13T22:36:06;97811.69;;;11.12;100.00
54918;BME280;40818;50.562;7.454;2022-10-13T22:41:10;97804.66;;;11.14;100.00
54918;BME280;40818;50.562;7.454;2022-10-13T22:46:18;97804.34;;;11.18;100.00
54918;BME280;40818;50.562;7.454;2022-10-13T22:51:23;97798.59;;;11.13;100.00
54918;BME280;40818;50.562;7.454;2022-10-13T22:56:29;97797.13;;;11.09;100.00
54918;BME280;40818;50.562;7.454;2022-10-13T23:01:35;97788.41;;;11.10;100.00
54918;BME280;40818;50.562;7.454;2022-10-13T23:06:39;97785.50;;;11.15;100.00
54918;BME280;40818;50.562;7.454;2022-10-13T23:11:42;97782.41;;;11.09;100.00
54918;BME280;40818;50.562;7.454;2022-10-13T23:16:54;97784.91;;;11.11;100.00
54918;BME280;40818;50.562;7.454;2022-10-13T23:21:58;97785.00;;;11.09;100.00
54918;BME280;40818;50.562;7.454;2022-10-13T23:27:01;97775.31;;;11.12;100.00
54918;BME280;40818;50.562;7.454;2022-10-13T23:32:07;97768.16;;;11.15;100.00
54918;BME280;40818;50.562;7.454;2022-10-13T23:37:11;97765.97;;;11.09;100.00
54918;BME280;40818;50.562;7.454;2022-10-13T23:42:14;97770.88;;;11.14;100.00
54918;BME280;40818;50.562;7.454;2022-10-13T23:47:20;97771.69;;;11.14;100.00
54918;BME280;40818;50.562;7.454;2022-10-13T23:52:23;97773.16;;;11.18;100.00
54918;BME280;40818;50.562;7.454;2022-10-13T23:57:28;97773.78;;;11.22;100.00
